createdAt,value
2018-09-14T00:00:47.354Z,12.80
2018-09-14T00:05:40.580Z,12.80
2018-09-14T00:10:33.803Z,12.80
2018-09-14T00:15:27.101Z,12.70
2018-09-14T00:20:20.370Z,12.60
2018-09-14T00:25:13.621Z,12.50
2018-09-14T00:30:06.988Z,12.40
2018-09-14T00:35:00.775Z,12.30
2018-09-14T00:39:54.102Z,12.40
2018-09-14T00:44:47.327Z,12.30
2018-09-14T00:49:40.553Z,12.20
2018-09-14T00:54:33.787Z,12.10
2018-09-14T00:59:27.027Z,12.10
2018-09-14T01:04:20.590Z,12.20
2018-09-14T01:09:19.478Z,12.20
2018-09-14T01:14:12.725Z,12.00
2018-09-14T01:19:05.971Z,11.80
2018-09-14T01:23:59.236Z,11.80
2018-09-14T01:28:52.531Z,11.90
2018-09-14T01:33:45.819Z,11.90
2018-09-14T01:38:39.561Z,11.80
2018-09-14T01:43:32.879Z,11.70
2018-09-14T01:48:27.188Z,11.80
2018-09-14T01:53:20.488Z,11.70
2018-09-14T01:58:13.727Z,11.60
2018-09-14T02:03:06.960Z,11.60
2018-09-14T02:08:00.228Z,11.60
2018-09-14T02:12:53.699Z,11.60
2018-09-14T02:17:46.960Z,11.50
2018-09-14T02:22:40.182Z,11.50
2018-09-14T02:27:33.405Z,11.50
2018-09-14T02:32:26.670Z,11.50
2018-09-14T02:37:19.954Z,11.50
2018-09-14T02:42:13.179Z,9.70
2018-09-14T02:47:06.443Z,11.40
2018-09-14T02:51:59.656Z,11.30
2018-09-14T02:56:52.886Z,11.30
2018-09-14T03:01:46.815Z,11.30
2018-09-14T03:06:40.728Z,11.30
2018-09-14T03:11:33.957Z,11.30
2018-09-14T03:16:27.216Z,11.20
2018-09-14T03:21:20.436Z,11.20
2018-09-14T03:26:14.270Z,11.20
2018-09-14T03:31:07.535Z,11.20
2018-09-14T03:36:01.578Z,11.10
2018-09-14T03:40:54.802Z,11.10
2018-09-14T03:45:48.018Z,11.10
2018-09-14T03:50:41.296Z,11.10
2018-09-14T03:55:34.547Z,11.00
2018-09-14T04:00:27.754Z,11.20
2018-09-14T04:05:20.992Z,11.20
2018-09-14T04:10:14.263Z,11.10
2018-09-14T04:15:07.492Z,11.20
2018-09-14T04:20:00.702Z,11.20
2018-09-14T04:24:53.926Z,11.10
2018-09-14T04:29:47.195Z,11.00
2018-09-14T04:34:41.047Z,11.10
2018-09-14T04:39:34.633Z,11.10
2018-09-14T04:44:27.876Z,11.00
2018-09-14T04:49:21.123Z,11.10
2018-09-14T04:54:14.338Z,10.90
2018-09-14T04:59:07.746Z,10.80
2018-09-14T05:04:00.951Z,10.80
2018-09-14T05:08:54.184Z,10.90
2018-09-14T05:13:47.524Z,10.80
2018-09-14T05:18:40.797Z,10.90
2018-09-14T05:23:34.076Z,10.90
2018-09-14T05:28:27.335Z,11.00
2018-09-14T05:33:20.593Z,11.10
2018-09-14T05:38:13.874Z,11.10
2018-09-14T05:43:07.107Z,11.20
2018-09-14T05:48:00.295Z,11.50
2018-09-14T05:52:53.537Z,11.80
2018-09-14T05:57:47.440Z,12.00
2018-09-14T06:02:40.643Z,12.30
2018-09-14T06:07:33.882Z,12.50
2018-09-14T06:12:27.077Z,12.60
2018-09-14T06:17:20.360Z,13.00
2018-09-14T06:22:13.636Z,13.20
2018-09-14T06:27:06.941Z,13.40
2018-09-14T06:32:00.351Z,13.80
2018-09-14T06:36:53.620Z,14.10
2018-09-14T06:41:46.841Z,14.60
2018-09-14T06:46:40.099Z,15.20
2018-09-14T06:51:34.276Z,15.50
2018-09-14T06:56:27.532Z,15.50
2018-09-14T07:01:20.781Z,15.60
2018-09-14T07:06:14.003Z,16.00
2018-09-14T07:11:07.299Z,16.10
2018-09-14T07:16:00.569Z,16.10
2018-09-14T07:20:53.849Z,16.50
2018-09-14T07:25:47.083Z,16.30
2018-09-14T07:30:40.392Z,16.30
2018-09-14T07:35:33.632Z,16.30
2018-09-14T07:40:26.922Z,16.30
2018-09-14T07:45:20.153Z,16.20
2018-09-14T07:50:13.399Z,16.40
2018-09-14T07:55:06.633Z,16.60
2018-09-14T07:59:59.863Z,16.50
2018-09-14T08:04:53.107Z,16.40
2018-09-14T08:09:46.354Z,16.60
2018-09-14T08:14:39.588Z,17.20
2018-09-14T08:19:32.935Z,17.60
2018-09-14T08:24:26.219Z,17.80
2018-09-14T08:29:20.397Z,17.80
2018-09-14T08:34:13.573Z,18.70
2018-09-14T08:39:10.008Z,18.90
2018-09-14T08:44:03.241Z,18.40
2018-09-14T08:48:57.225Z,19.00
2018-09-14T08:53:50.475Z,19.30
2018-09-14T08:58:43.717Z,19.60
2018-09-14T09:03:37.249Z,20.70
2018-09-14T09:08:30.629Z,20.60
2018-09-14T09:13:23.830Z,21.10
2018-09-14T09:18:17.079Z,22.30
2018-09-14T09:23:10.317Z,22.60
2018-09-14T09:28:03.520Z,22.60
2018-09-14T09:32:56.754Z,23.70
2018-09-14T09:37:49.966Z,24.10
2018-09-14T09:42:43.209Z,24.10
2018-09-14T09:47:36.470Z,24.20
2018-09-14T09:52:29.713Z,24.40
2018-09-14T09:57:22.966Z,23.90
2018-09-14T10:02:21.822Z,23.90
2018-09-14T10:07:15.101Z,23.70
2018-09-14T10:12:08.313Z,23.60
2018-09-14T10:17:01.553Z,23.50
2018-09-14T10:21:54.799Z,23.20
2018-09-14T10:26:48.046Z,23.10
2018-09-14T10:31:41.262Z,23.00
2018-09-14T10:36:34.521Z,22.60
2018-09-14T10:41:27.915Z,22.60
2018-09-14T10:46:21.129Z,23.00
2018-09-14T10:51:14.363Z,23.40
2018-09-14T10:56:07.697Z,23.80
2018-09-14T11:01:00.963Z,23.80
2018-09-14T11:05:54.252Z,23.70
2018-09-14T11:10:47.481Z,23.80
2018-09-14T11:15:40.747Z,24.00
2018-09-14T11:20:34.068Z,23.90
2018-09-14T11:25:27.293Z,23.80
2018-09-14T11:30:20.501Z,23.90
2018-09-14T11:35:13.750Z,24.20
2018-09-14T11:40:07.052Z,24.30
2018-09-14T11:45:00.311Z,24.30
2018-09-14T11:49:53.579Z,24.30
2018-09-14T11:54:46.855Z,24.80
2018-09-14T11:59:40.090Z,24.90
2018-09-14T12:04:33.377Z,25.10
2018-09-14T12:09:26.657Z,24.50
2018-09-14T12:14:19.864Z,24.40
2018-09-14T12:19:13.086Z,24.60
2018-09-14T12:24:06.355Z,24.50
2018-09-14T12:28:59.628Z,24.50
2018-09-14T12:33:52.879Z,24.20
2018-09-14T12:38:46.159Z,23.70
2018-09-14T12:43:39.403Z,24.00
2018-09-14T12:48:32.802Z,24.00
2018-09-14T12:53:26.035Z,23.20
2018-09-14T12:58:19.313Z,22.90
2018-09-14T13:03:12.550Z,23.00
2018-09-14T13:08:05.857Z,23.40
2018-09-14T13:12:59.175Z,24.00
2018-09-14T13:17:52.412Z,23.70
2018-09-14T13:22:45.681Z,23.90
2018-09-14T13:27:38.915Z,23.60
2018-09-14T13:32:32.196Z,23.70
2018-09-14T13:37:25.451Z,23.50
2018-09-14T13:42:18.658Z,23.20
2018-09-14T13:47:11.892Z,22.90
2018-09-14T13:52:06.038Z,23.20
2018-09-14T13:56:59.289Z,23.30
2018-09-14T14:01:52.562Z,23.50
2018-09-14T14:06:45.847Z,23.50
2018-09-14T14:11:39.139Z,23.80
2018-09-14T14:16:32.375Z,23.90
2018-09-14T14:21:25.616Z,23.00
2018-09-14T14:26:18.847Z,23.40
2018-09-14T14:31:12.052Z,23.70
2018-09-14T14:36:05.314Z,24.00
2018-09-14T14:40:58.555Z,24.40
2018-09-14T14:45:51.878Z,24.40
2018-09-14T14:50:45.107Z,23.60
2018-09-14T14:55:38.322Z,23.10
2018-09-14T15:00:31.587Z,22.80
2018-09-14T15:05:24.860Z,23.30
2018-09-14T15:10:18.097Z,23.90
2018-09-14T15:15:11.412Z,23.80
2018-09-14T15:20:05.119Z,23.50
2018-09-14T15:24:58.362Z,23.70
2018-09-14T15:29:51.610Z,23.70
2018-09-14T15:34:44.858Z,23.60
2018-09-14T15:39:38.155Z,23.20
2018-09-14T15:44:31.404Z,22.60
2018-09-14T15:49:24.698Z,22.20
2018-09-14T15:54:17.927Z,22.00
2018-09-14T15:59:11.237Z,21.90
2018-09-14T16:04:04.521Z,21.80
2018-09-14T16:08:57.781Z,21.70
2018-09-14T16:13:51.047Z,21.60
2018-09-14T16:18:44.288Z,21.50
2018-09-14T16:23:37.504Z,21.40
2018-09-14T16:28:30.792Z,21.20
2018-09-14T16:33:24.024Z,21.00
2018-09-14T16:38:17.284Z,21.00
2018-09-14T16:43:10.541Z,20.80
2018-09-14T16:48:03.805Z,20.70
2018-09-14T16:52:57.038Z,20.50
2018-09-14T16:57:50.269Z,20.40
2018-09-14T17:02:43.514Z,20.10
2018-09-14T17:07:36.781Z,20.00
2018-09-14T17:12:30.050Z,19.80
2018-09-14T17:17:23.342Z,19.70
2018-09-14T17:22:17.171Z,19.50
2018-09-14T17:27:10.486Z,19.30
2018-09-14T17:32:03.882Z,19.30
2018-09-14T17:36:57.199Z,19.10
2018-09-14T17:41:50.457Z,18.90
2018-09-14T17:46:43.735Z,18.70
2018-09-14T17:51:37.028Z,18.50
2018-09-14T17:56:30.266Z,18.30
2018-09-14T18:01:23.500Z,18.10
2018-09-14T18:06:16.730Z,17.90
2018-09-14T18:11:09.931Z,17.70
2018-09-14T18:16:03.237Z,17.50
2018-09-14T18:20:56.478Z,17.40
2018-09-14T18:25:49.696Z,17.30
2018-09-14T18:30:42.987Z,17.20
2018-09-14T18:35:36.254Z,17.30
2018-09-14T18:40:29.541Z,17.40
2018-09-14T18:45:22.810Z,17.50
2018-09-14T18:50:16.073Z,17.50
2018-09-14T18:55:09.296Z,17.50
2018-09-14T19:00:02.624Z,17.40
2018-09-14T19:04:55.872Z,17.30
2018-09-14T19:09:49.134Z,17.10
2018-09-14T19:14:42.437Z,16.90
2018-09-14T19:19:35.662Z,16.70
2018-09-14T19:24:28.900Z,16.60
2018-09-14T19:29:22.143Z,16.60
2018-09-14T19:34:15.419Z,16.60
2018-09-14T19:39:11.765Z,16.60
2018-09-14T19:44:05.002Z,16.80
2018-09-14T19:48:58.221Z,16.80
2018-09-14T19:53:51.486Z,16.60
2018-09-14T19:58:44.729Z,16.50
2018-09-14T20:03:37.970Z,16.30
2018-09-14T20:08:31.228Z,16.20
2018-09-14T20:13:24.466Z,16.00
2018-09-14T20:18:17.802Z,15.80
2018-09-14T20:23:11.896Z,15.70
2018-09-14T20:28:05.176Z,15.60
2018-09-14T20:32:58.436Z,15.40
2018-09-14T20:37:51.653Z,15.40
2018-09-14T20:42:44.921Z,15.50
2018-09-14T20:47:38.179Z,15.60
2018-09-14T20:52:31.473Z,15.70
2018-09-14T20:57:24.731Z,15.70
2018-09-14T21:02:18.076Z,15.90
2018-09-14T21:07:11.287Z,15.90
2018-09-14T21:12:04.610Z,16.10
2018-09-14T21:16:57.855Z,16.20
2018-09-14T21:21:51.178Z,16.30
2018-09-14T21:26:44.423Z,16.30
2018-09-14T21:31:38.452Z,16.30
2018-09-14T21:36:31.701Z,16.30
2018-09-14T21:41:24.955Z,16.30
2018-09-14T21:46:18.187Z,16.30
2018-09-14T21:51:11.454Z,16.30
2018-09-14T21:56:04.742Z,16.30
2018-09-14T22:01:03.689Z,16.30
2018-09-14T22:05:56.911Z,16.40
2018-09-14T22:10:50.112Z,16.50
2018-09-14T22:15:43.349Z,16.50
2018-09-14T22:20:36.635Z,16.50
2018-09-14T22:25:30.548Z,16.40
2018-09-14T22:30:23.793Z,16.40
2018-09-14T22:35:18.002Z,16.40
2018-09-14T22:40:11.240Z,16.40
2018-09-14T22:45:04.775Z,16.40
2018-09-14T22:49:58.001Z,16.30
2018-09-14T22:54:51.237Z,16.30
2018-09-14T22:59:44.469Z,16.30
2018-09-14T23:04:37.754Z,16.30
2018-09-14T23:09:30.998Z,16.30
2018-09-14T23:14:24.222Z,16.30
2018-09-14T23:19:17.488Z,16.20
2018-09-14T23:24:10.757Z,16.30
2018-09-14T23:29:04.053Z,16.20
2018-09-14T23:33:57.361Z,16.10
2018-09-14T23:38:50.640Z,16.00
2018-09-14T23:43:43.927Z,16.10
2018-09-14T23:48:37.237Z,16.10
2018-09-14T23:53:30.509Z,16.00
2018-09-14T23:58:23.763Z,16.00
